Time,TemperatureF,DewpointF,PressureIn,WindDirection,WindDirectionDegrees,WindSpeedMPH,WindSpeedGustMPH,Humidity,HourlyPrecipIn,Conditions,Clouds,dailyrainin,SoftwareType,DateUTC
2013-02-09 00:00:00,28.0,25.8,29.65,NW,315,5.8,5.8,91,0.00,RA,,0.00,WeatherDisplay:10.37,2013-02-09 05:00:00,
2013-02-09 00:01:00,28.0,25.8,29.65,NW,315,5.8,5.8,91,0.00,RA,,0.00,WeatherDisplay:10.37,2013-02-09 05:01:00,
2013-02-09 00:05:00,28.0,25.8,29.65,NW,315,5.8,5.8,91,0.00,RA,,0.00,WeatherDisplay:10.37,2013-02-09 05:05:00,
2013-02-09 00:10:00,27.7,25.4,29.65,NW,315,5.8,5.8,91,0.00,OVC,,0.00,WeatherDisplay:10.37,2013-02-09 05:10:00,
2013-02-09 00:15:00,27.7,25.4,29.65,NW,315,2.3,3.8,91,0.00,OVC,,0.00,WeatherDisplay:10.37,2013-02-09 05:15:00,
2013-02-09 00:20:00,27.7,25.4,29.65,NNE,22,5.8,5.8,91,0.00,CLR,,0.00,WeatherDisplay:10.37,2013-02-09 05:20:00,
2013-02-09 00:25:00,27.7,25.4,29.65,NE,45,4.6,4.6,91,0.00,CLR,,0.00,WeatherDisplay:10.37,2013-02-09 05:25:00,
2013-02-09 00:30:00,27.7,25.4,29.65,NNW,338,6.9,6.9,91,0.00,CLR,,0.00,WeatherDisplay:10.37,2013-02-09 05:30:00,
2013-02-09 00:35:00,27.7,25.4,29.65,West,270,4.6,4.6,91,0.00,CLR,,0.00,WeatherDisplay:10.37,2013-02-09 05:35:00,
2013-02-09 00:40:00,27.7,25.4,29.65,NNW,338,2.3,2.3,91,0.00,CLR,,0.00,WeatherDisplay:10.37,2013-02-09 05:40:00,
2013-02-09 00:45:00,27.7,25.4,29.65,West,270,4.6,4.6,91,0.00,CLR,,0.00,WeatherDisplay:10.37,2013-02-09 05:45:00,
2013-02-09 00:50:00,27.7,25.4,29.65,North,0,4.6,4.6,91,0.00,CLR,,0.00,WeatherDisplay:10.37,2013-02-09 05:50:00,
2013-02-09 00:55:00,27.7,25.4,29.65,NW,315,4.6,4.6,91,0.00,CLR,,0.00,WeatherDisplay:10.37,2013-02-09 05:55:00,
2013-02-09 01:00:00,27.7,25.4,29.65,NW,315,2.3,2.3,91,0.00,CLR,,0.00,WeatherDisplay:10.37,2013-02-09 06:00:00,
2013-02-09 01:05:00,27.7,25.4,29.65,NW,315,3.9,3.9,91,0.00,CLR,,0.00,WeatherDisplay:10.37,2013-02-09 06:05:00,
2013-02-09 01:10:00,27.7,25.4,29.65,NW,315,2.3,2.3,91,0.00,CLR,,0.00,WeatherDisplay:10.37,2013-02-09 06:10:00,
2013-02-09 01:15:00,27.7,25.4,29.66,NW,315,2.4,2.4,91,0.00,CLR,,0.00,WeatherDisplay:10.37,2013-02-09 06:15:00,
2013-02-09 01:20:00,27.7,25.4,29.66,NW,315,2.3,2.3,91,0.00,CLR,,0.00,WeatherDisplay:10.37,2013-02-09 06:20:00,
2013-02-09 01:25:00,27.7,25.4,29.66,NW,315,2.3,2.3,91,0.00,CLR,,0.00,WeatherDisplay:10.37,2013-02-09 06:25:00,
2013-02-09 01:30:00,27.7,25.4,29.66,NW,315,1.1,1.1,91,0.00,CLR,,0.00,WeatherDisplay:10.37,2013-02-09 06:30:00,
2013-02-09 01:35:00,27.7,25.4,29.66,NW,315,1.1,1.1,91,0.00,CLR,,0.00,WeatherDisplay:10.37,2013-02-09 06:35:00,
2013-02-09 01:40:00,27.7,25.4,29.66,NW,315,1.1,1.1,91,0.00,CLR,,0.00,WeatherDisplay:10.37,2013-02-09 06:40:00,
2013-02-09 01:45:00,27.7,25.4,29.66,NW,315,1.7,1.7,91,0.00,CLR,,0.00,WeatherDisplay:10.37,2013-02-09 06:45:00,
2013-02-09 01:50:00,27.7,25.4,29.66,NW,315,2.3,2.3,91,0.00,CLR,,0.00,WeatherDisplay:10.37,2013-02-09 06:50:00,
2013-02-09 01:55:00,27.7,25.4,29.66,NW,315,1.1,1.1,91,0.00,CLR,,0.00,WeatherDisplay:10.37,2013-02-09 06:55:00,
2013-02-09 02:00:00,27.7,25.4,29.66,NW,315,0.0,0.2,91,0.00,CLR,,0.00,WeatherDisplay:10.37,2013-02-09 07:00:00,
2013-02-09 02:05:00,27.7,25.4,29.66,NW,315,2.2,2.2,91,0.00,CLR,,0.00,WeatherDisplay:10.37,2013-02-09 07:05:00,
2013-02-09 02:10:00,27.7,25.4,29.66,NW,315,2.9,2.9,91,0.00,CLR,,0.00,WeatherDisplay:10.37,2013-02-09 07:10:00,
2013-02-09 02:15:00,27.7,25.4,29.68,NW,315,1.4,1.4,91,0.00,CLR,,0.00,WeatherDisplay:10.37,2013-02-09 07:15:00,
2013-02-09 02:20:00,27.7,25.4,29.68,NW,315,1.1,1.1,91,0.00,CLR,,0.00,WeatherDisplay:10.37,2013-02-09 07:20:00,
2013-02-09 02:25:00,27.7,25.4,29.68,NW,315,0.0,0.3,91,0.00,CLR,,0.00,WeatherDisplay:10.37,2013-02-09 07:25:00,
2013-02-09 02:30:00,27.7,25.4,29.68,NW,315,0.0,0.1,91,0.00,CLR,,0.00,WeatherDisplay:10.37,2013-02-09 07:30:00,
2013-02-09 02:35:00,27.7,25.4,29.68,NW,315,0.0,0.0,91,0.00,CLR,,0.00,WeatherDisplay:10.37,2013-02-09 07:35:00,
2013-02-09 02:40:00,27.7,25.4,29.68,NW,315,2.3,2.3,91,0.00,CLR,,0.00,WeatherDisplay:10.37,2013-02-09 07:40:00,
2013-02-09 02:45:00,28.4,26.4,29.68,NW,315,1.3,1.3,92,0.00,CLR,,0.00,WeatherDisplay:10.37,2013-02-09 07:45:00,
2013-02-09 02:50:00,28.4,26.4,29.68,NW,315,2.3,2.3,92,0.00,CLR,,0.00,WeatherDisplay:10.37,2013-02-09 07:50:00,
2013-02-09 02:55:00,28.8,26.7,29.68,NW,315,2.3,2.3,92,0.00,CLR,,0.00,WeatherDisplay:10.37,2013-02-09 07:55:00,
2013-02-09 03:00:00,28.8,26.7,29.68,NW,315,1.5,1.5,92,0.00,CLR,,0.00,WeatherDisplay:10.37,2013-02-09 08:00:00,
2013-02-09 03:05:00,28.8,26.7,29.68,NW,315,1.1,1.1,92,0.00,CLR,,0.00,WeatherDisplay:10.37,2013-02-09 08:05:00,
2013-02-09 03:11:00,28.6,26.6,29.68,NW,315,3.5,3.5,92,0.00,CLR,,0.00,WeatherDisplay:10.37,2013-02-09 08:11:00,
2013-02-09 03:16:00,28.8,26.7,29.68,NW,315,0.0,0.5,92,0.00,CLR,,0.00,WeatherDisplay:10.37,2013-02-09 08:16:00,
2013-02-09 03:21:00,28.8,26.7,29.68,NW,315,2.3,2.3,92,0.00,CLR,,0.00,WeatherDisplay:10.37,2013-02-09 08:21:00,
2013-02-09 03:26:00,28.8,26.7,29.68,NW,315,1.1,1.1,92,0.00,CLR,,0.00,WeatherDisplay:10.37,2013-02-09 08:26:00,
2013-02-09 03:31:00,28.8,26.7,29.68,NW,315,1.4,1.4,92,0.00,CLR,,0.00,WeatherDisplay:10.37,2013-02-09 08:31:00,
2013-02-09 03:36:00,28.8,26.7,29.69,NW,315,2.3,2.3,92,0.00,CLR,,0.00,WeatherDisplay:10.37,2013-02-09 08:36:00,
2013-02-09 03:41:00,28.8,26.7,29.69,NW,315,2.9,2.9,92,0.00,CLR,,0.00,WeatherDisplay:10.37,2013-02-09 08:41:00,
2013-02-09 03:46:00,28.8,26.7,29.69,NW,315,1.1,1.1,92,0.00,CLR,,0.00,WeatherDisplay:10.37,2013-02-09 08:46:00,
2013-02-09 03:51:00,29.1,26.8,29.69,NW,315,3.5,3.5,91,0.00,CLR,,0.00,WeatherDisplay:10.37,2013-02-09 08:51:00,
2013-02-09 03:56:00,28.9,26.6,29.69,NNW,338,2.3,2.3,91,0.00,CLR,,0.00,WeatherDisplay:10.37,2013-02-09 08:56:00,
2013-02-09 04:01:00,29.1,26.8,29.70,NW,315,1.1,1.1,91,0.00,CLR,,0.00,WeatherDisplay:10.37,2013-02-09 09:01:00,
2013-02-09 04:06:00,29.1,26.8,29.70,NW,315,2.3,2.3,91,0.00,CLR,,0.00,WeatherDisplay:10.37,2013-02-09 09:06:00,
2013-02-09 04:11:00,29.1,26.8,29.70,NW,315,2.3,2.3,91,0.00,CLR,,0.00,WeatherDisplay:10.37,2013-02-09 09:11:00,
2013-02-09 04:16:00,29.1,26.8,29.69,NW,315,7.1,7.1,91,0.00,CLR,,0.00,WeatherDisplay:10.37,2013-02-09 09:16:00,
2013-02-09 04:21:00,29.1,26.8,29.69,NNW,338,3.1,3.1,91,0.00,CLR,,0.00,WeatherDisplay:10.37,2013-02-09 09:21:00,
2013-02-09 04:26:00,28.9,26.4,29.69,NNE,22,6.9,6.9,90,0.00,CLR,,0.00,WeatherDisplay:10.37,2013-02-09 09:26:00,
2013-02-09 04:31:00,28.9,26.4,29.69,NW,315,4.6,4.6,90,0.00,CLR,,0.00,WeatherDisplay:10.37,2013-02-09 09:31:00,
2013-02-09 04:36:00,28.9,26.4,29.71,WNW,292,4.1,4.1,90,0.00,CLR,,0.00,WeatherDisplay:10.37,2013-02-09 09:36:00,
2013-02-09 04:41:00,28.9,26.4,29.71,NW,315,2.3,2.3,90,0.00,CLR,,0.00,WeatherDisplay:10.37,2013-02-09 09:41:00,
2013-02-09 04:46:00,28.9,26.4,29.71,NW,315,2.5,2.5,90,0.00,CLR,,0.00,WeatherDisplay:10.37,2013-02-09 09:46:00,
2013-02-09 04:51:00,28.9,26.4,29.71,North,0,4.6,4.6,90,0.00,CLR,,0.00,WeatherDisplay:10.37,2013-02-09 09:51:00,
2013-02-09 04:56:00,29.1,26.3,29.72,NW,315,6.9,6.9,89,0.00,CLR,,0.00,WeatherDisplay:10.37,2013-02-09 09:56:00,
2013-02-09 05:01:00,28.8,25.9,29.72,NW,315,4.6,4.6,89,0.00,CLR,,0.00,WeatherDisplay:10.37,2013-02-09 10:01:00,
2013-02-09 05:06:00,28.8,25.9,29.72,NW,315,6.9,6.9,89,0.00,CLR,,0.00,WeatherDisplay:10.37,2013-02-09 10:06:00,
2013-02-09 05:11:00,28.8,25.9,29.72,NW,315,4.6,4.6,89,0.00,CLR,,0.00,WeatherDisplay:10.37,2013-02-09 10:11:00,
2013-02-09 05:16:00,28.8,25.9,29.72,NW,315,2.3,2.6,89,0.00,CLR,,0.00,WeatherDisplay:10.37,2013-02-09 10:16:00,
2013-02-09 05:21:00,28.8,25.9,29.72,NNW,338,2.3,2.3,89,0.00,CLR,,0.00,WeatherDisplay:10.37,2013-02-09 10:21:00,
2013-02-09 05:26:00,28.8,25.9,29.72,NW,315,3.3,3.3,89,0.00,CLR,,0.00,WeatherDisplay:10.37,2013-02-09 10:26:00,
2013-02-09 05:31:00,28.8,25.9,29.72,NW,315,8.1,8.1,89,0.00,CLR,,0.00,WeatherDisplay:10.37,2013-02-09 10:31:00,
2013-02-09 05:36:00,28.8,25.9,29.74,West,270,3.5,3.9,89,0.00,CLR,,0.00,WeatherDisplay:10.37,2013-02-09 10:36:00,
2013-02-09 05:41:00,28.8,25.7,29.74,NW,315,6.9,6.9,88,0.00,CLR,,0.00,WeatherDisplay:10.37,2013-02-09 10:41:00,
2013-02-09 05:46:00,28.4,25.3,29.74,NW,315,3.5,3.8,88,0.00,CLR,,0.00,WeatherDisplay:10.37,2013-02-09 10:46:00,
2013-02-09 05:51:00,28.2,24.8,29.74,North,0,10.4,10.4,87,0.00,CLR,,0.00,WeatherDisplay:10.37,2013-02-09 10:51:00,
2013-02-09 05:56:00,28.2,24.8,29.75,NNW,338,9.2,9.2,87,0.00,CLR,,0.00,WeatherDisplay:10.37,2013-02-09 10:56:00,
2013-02-09 06:01:00,28.0,24.4,29.75,West,270,6.9,6.9,86,0.00,CLR,,0.00,WeatherDisplay:10.37,2013-02-09 11:01:00,
2013-02-09 06:06:00,28.0,24.7,29.75,NW,315,6.9,6.9,87,0.00,CLR,,0.00,WeatherDisplay:10.37,2013-02-09 11:06:00,
2013-02-09 06:11:00,27.9,24.5,29.75,West,270,4.6,4.6,87,0.00,CLR,,0.00,WeatherDisplay:10.37,2013-02-09 11:11:00,
2013-02-09 06:16:00,28.0,24.7,29.75,WNW,292,3.5,3.5,87,0.00,CLR,,0.00,WeatherDisplay:10.37,2013-02-09 11:16:00,
2013-02-09 06:21:00,27.7,24.3,29.75,NNE,22,4.6,4.6,87,0.00,CLR,,0.00,WeatherDisplay:10.37,2013-02-09 11:21:00,
2013-02-09 06:26:00,27.5,24.1,29.75,West,270,6.9,6.9,87,0.00,CLR,,0.00,WeatherDisplay:10.37,2013-02-09 11:26:00,
2013-02-09 06:31:00,27.5,24.1,29.75,West,270,6.9,6.9,87,0.00,CLR,,0.00,WeatherDisplay:10.37,2013-02-09 11:31:00,
2013-02-09 06:36:00,27.3,24.0,29.76,West,270,4.6,4.6,87,0.00,CLR,,0.00,WeatherDisplay:10.37,2013-02-09 11:36:00,
2013-02-09 06:41:00,27.3,24.0,29.76,NW,315,4.6,4.6,87,0.00,CLR,,0.00,WeatherDisplay:10.37,2013-02-09 11:41:00,
2013-02-09 06:46:00,27.1,23.5,29.76,WNW,292,6.9,6.9,86,0.00,CLR,,0.00,WeatherDisplay:10.37,2013-02-09 11:46:00,
2013-02-09 06:51:00,27.0,23.3,29.76,WNW,292,4.6,4.6,86,0.00,CLR,,0.00,WeatherDisplay:10.37,2013-02-09 11:51:00,
2013-02-09 06:56:00,27.0,23.3,29.77,NNW,338,8.1,8.1,86,0.00,CLR,,0.00,WeatherDisplay:10.37,2013-02-09 11:56:00,
2013-02-09 07:01:00,27.0,23.1,29.77,NNW,338,6.9,6.9,85,0.00,CLR,,0.00,WeatherDisplay:10.37,2013-02-09 12:01:00,
2013-02-09 07:06:00,26.6,22.7,29.77,WNW,292,6.9,6.9,85,0.00,CLR,,0.00,WeatherDisplay:10.37,2013-02-09 12:06:00,
2013-02-09 07:11:00,26.6,22.7,29.77,NW,315,3.5,4.3,85,0.00,CLR,,0.00,WeatherDisplay:10.37,2013-02-09 12:11:00,
2013-02-09 07:16:00,26.6,22.7,29.80,NNW,338,5.8,5.8,85,0.00,CLR,,0.00,WeatherDisplay:10.37,2013-02-09 12:16:00,
2013-02-09 07:21:00,26.6,22.7,29.80,NW,315,9.2,9.2,85,0.00,CLR,,0.00,WeatherDisplay:10.37,2013-02-09 12:21:00,
2013-02-09 07:26:00,26.6,22.7,29.80,WNW,292,10.4,10.4,85,0.00,CLR,,0.00,WeatherDisplay:10.37,2013-02-09 12:26:00,
2013-02-09 07:31:00,26.2,22.3,29.80,WNW,292,6.9,6.9,85,0.00,CLR,,0.00,WeatherDisplay:10.37,2013-02-09 12:31:00,
2013-02-09 07:36:00,26.2,22.1,29.81,West,270,6.9,6.9,84,0.00,CLR,,0.00,WeatherDisplay:10.37,2013-02-09 12:36:00,
2013-02-09 07:41:00,26.6,22.4,29.81,NW,315,6.9,6.9,84,0.00,CLR,,0.00,WeatherDisplay:10.37,2013-02-09 12:41:00,
2013-02-09 07:46:00,26.2,22.1,29.81,WNW,292,5.9,5.9,84,0.00,CLR,,0.00,WeatherDisplay:10.37,2013-02-09 12:46:00,
2013-02-09 07:51:00,26.6,22.4,29.81,NW,315,9.1,9.1,84,0.00,CLR,,0.00,WeatherDisplay:10.37,2013-02-09 12:51:00,
2013-02-09 07:56:00,26.2,21.8,29.81,NW,315,5.8,5.8,83,0.00,CLR,,0.00,WeatherDisplay:10.37,2013-02-09 12:56:00,
2013-02-09 08:01:00,26.2,21.8,29.81,NW,315,8.1,8.1,83,0.00,CLR,,0.00,WeatherDisplay:10.37,2013-02-09 13:01:00,
2013-02-09 08:06:00,26.2,21.8,29.81,North,0,15.1,15.1,83,0.00,CLR,,0.00,WeatherDisplay:10.37,2013-02-09 13:06:00,
2013-02-09 08:11:00,26.2,21.8,29.81,WNW,292,17.3,17.3,83,0.00,CLR,,0.00,WeatherDisplay:10.37,2013-02-09 13:11:00,
2013-02-09 08:16:00,26.2,21.5,29.83,West,270,9.2,9.2,82,0.00,CLR,,0.00,WeatherDisplay:10.37,2013-02-09 13:16:00,
2013-02-09 08:21:00,26.1,21.3,29.83,NW,315,11.5,11.5,82,0.00,CLR,,0.00,WeatherDisplay:10.37,2013-02-09 13:21:00,
2013-02-09 08:26:00,26.2,21.5,29.83,NW,315,6.9,6.9,82,0.00,CLR,,0.00,WeatherDisplay:10.37,2013-02-09 13:26:00,
2013-02-09 08:31:00,26.2,21.5,29.83,WNW,292,8.4,8.4,82,0.00,CLR,,0.00,WeatherDisplay:10.37,2013-02-09 13:31:00,
2013-02-09 08:36:00,26.2,21.2,29.84,North,0,11.5,11.5,81,0.00,CLR,,0.00,WeatherDisplay:10.37,2013-02-09 13:36:00,
2013-02-09 08:41:00,26.2,21.2,29.84,NW,315,10.5,10.5,81,0.00,CLR,,0.00,WeatherDisplay:10.37,2013-02-09 13:41:00,
2013-02-09 08:46:00,26.2,20.9,29.84,NNW,338,6.9,7.6,80,0.00,CLR,,0.00,WeatherDisplay:10.37,2013-02-09 13:46:00,
2013-02-09 08:51:00,26.2,21.2,29.84,NNW,338,10.4,10.4,81,0.00,CLR,,0.00,WeatherDisplay:10.37,2013-02-09 13:51:00,
2013-02-09 08:56:00,26.2,20.9,29.85,NW,315,11.5,11.5,80,0.00,CLR,,0.00,WeatherDisplay:10.37,2013-02-09 13:56:00,
2013-02-09 09:01:00,26.2,20.9,29.85,NW,315,9.2,9.2,80,0.00,CLR,,0.00,WeatherDisplay:10.37,2013-02-09 14:01:00,
2013-02-09 09:06:00,26.6,21.3,29.85,WNW,292,10.5,10.5,80,0.00,CLR,,0.00,WeatherDisplay:10.37,2013-02-09 14:06:00,
2013-02-09 09:11:00,26.6,21.3,29.85,NW,315,11.5,11.5,80,0.00,CLR,,0.00,WeatherDisplay:10.37,2013-02-09 14:11:00,
2013-02-09 09:16:00,26.6,21.3,29.85,WNW,292,10.4,10.4,80,0.00,CLR,,0.00,WeatherDisplay:10.37,2013-02-09 14:16:00,
2013-02-09 09:21:00,26.6,21.3,29.85,NW,315,6.0,6.8,80,0.00,CLR,,0.00,WeatherDisplay:10.37,2013-02-09 14:21:00,
2013-02-09 09:26:00,26.8,21.1,29.85,NNW,338,11.5,11.5,79,0.00,CLR,,0.00,WeatherDisplay:10.37,2013-02-09 14:26:00,
2013-02-09 09:31:00,26.8,20.8,29.85,NW,315,12.8,12.8,78,0.00,CLR,,0.00,WeatherDisplay:10.37,2013-02-09 14:31:00,
2013-02-09 09:36:00,26.8,21.1,29.87,NW,315,11.5,11.5,79,0.00,CLR,,0.00,WeatherDisplay:10.37,2013-02-09 14:36:00,
2013-02-09 09:41:00,26.8,20.8,29.87,NNW,338,10.8,10.8,78,0.00,CLR,,0.00,WeatherDisplay:10.37,2013-02-09 14:41:00,
2013-02-09 09:46:00,27.0,21.0,29.87,NW,315,16.1,16.1,78,0.00,CLR,,0.00,WeatherDisplay:10.37,2013-02-09 14:46:00,
2013-02-09 09:51:00,27.7,21.1,29.87,NNW,338,12.7,12.7,76,0.00,CLR,,0.00,WeatherDisplay:10.37,2013-02-09 14:51:00,
2013-02-09 09:56:00,27.7,21.4,29.89,NW,315,9.2,9.2,77,0.00,CLR,,0.00,WeatherDisplay:10.37,2013-02-09 14:56:00,
2013-02-09 10:01:00,27.9,21.6,29.89,NNW,338,10.4,10.4,77,0.00,CLR,,0.00,WeatherDisplay:10.37,2013-02-09 15:01:00,
2013-02-09 10:06:00,28.0,21.8,29.89,NNW,338,10.4,10.4,77,0.00,CLR,,0.00,WeatherDisplay:10.37,2013-02-09 15:06:00,
2013-02-09 10:11:00,28.4,22.1,29.89,NNW,338,11.5,11.5,77,0.00,CLR,,0.00,WeatherDisplay:10.37,2013-02-09 15:11:00,
2013-02-09 10:16:00,28.4,21.8,29.90,NW,315,15.0,15.0,76,0.00,CLR,,0.00,WeatherDisplay:10.37,2013-02-09 15:16:00,
2013-02-09 10:21:00,28.4,21.8,29.90,NW,315,16.1,16.1,76,0.00,CLR,,0.00,WeatherDisplay:10.37,2013-02-09 15:21:00,
2013-02-09 10:26:00,28.4,21.8,29.90,NW,315,9.2,9.2,76,0.00,CLR,,0.00,WeatherDisplay:10.37,2013-02-09 15:26:00,
2013-02-09 10:31:00,28.2,21.3,29.90,NW,315,13.8,13.8,75,0.00,CLR,,0.00,WeatherDisplay:10.37,2013-02-09 15:31:00,
2013-02-09 10:36:00,28.4,21.5,29.92,West,270,10.4,10.4,75,0.00,CLR,,0.00,WeatherDisplay:10.37,2013-02-09 15:36:00,
2013-02-09 10:41:00,28.4,21.2,29.92,NW,315,13.1,13.1,74,0.00,CLR,,0.00,WeatherDisplay:10.37,2013-02-09 15:41:00,
2013-02-09 10:46:00,28.4,21.2,29.92,NW,315,16.1,16.1,74,0.00,CLR,,0.00,WeatherDisplay:10.37,2013-02-09 15:46:00,
2013-02-09 10:51:00,27.9,20.6,29.92,WNW,292,12.8,12.8,74,0.00,CLR,,0.00,WeatherDisplay:10.37,2013-02-09 15:51:00,
2013-02-09 10:56:00,27.7,20.5,29.92,SSW,202,10.4,10.4,74,0.00,CLR,,0.00,WeatherDisplay:10.37,2013-02-09 15:56:00,
2013-02-09 11:01:00,28.4,21.5,29.92,NW,315,6.9,6.9,75,0.00,CLR,,0.00,WeatherDisplay:10.37,2013-02-09 16:01:00,
2013-02-09 11:06:00,29.5,21.9,29.92,NW,315,13.8,13.8,73,0.00,CLR,,0.00,WeatherDisplay:10.37,2013-02-09 16:06:00,
2013-02-09 11:11:00,29.8,22.2,29.92,NNW,338,8.1,8.1,73,0.00,CLR,,0.00,WeatherDisplay:10.37,2013-02-09 16:11:00,
2013-02-09 11:16:00,30.0,21.8,29.92,WNW,292,12.7,12.7,71,0.00,CLR,,0.00,WeatherDisplay:10.37,2013-02-09 16:16:00,
2013-02-09 11:21:00,30.2,21.2,29.92,West,270,15.0,15.0,69,0.00,CLR,,0.00,WeatherDisplay:10.37,2013-02-09 16:21:00,
2013-02-09 11:26:00,30.6,21.9,29.92,NW,315,9.2,9.2,70,0.00,CLR,,0.00,WeatherDisplay:10.37,2013-02-09 16:26:00,
2013-02-09 11:31:00,30.6,21.6,29.92,NW,315,10.5,10.5,69,0.00,CLR,,0.00,WeatherDisplay:10.37,2013-02-09 16:31:00,
2013-02-09 11:36:00,30.9,22.3,29.93,NW,315,9.2,9.2,70,0.00,CLR,,0.00,WeatherDisplay:10.37,2013-02-09 16:36:00,
2013-02-09 11:41:00,31.3,22.3,29.93,WNW,292,16.1,16.1,69,0.00,CLR,,0.00,WeatherDisplay:10.37,2013-02-09 16:41:00,
2013-02-09 11:46:00,31.3,22.3,29.93,WSW,248,10.4,10.4,69,0.00,CLR,,0.00,WeatherDisplay:10.37,2013-02-09 16:46:00,
2013-02-09 11:51:00,31.3,22.3,29.93,WSW,248,9.2,9.9,69,0.00,CLR,,0.00,WeatherDisplay:10.37,2013-02-09 16:51:00,
2013-02-09 11:56:00,31.3,22.3,29.92,NW,315,20.7,20.7,69,0.03,RA,,0.03,WeatherDisplay:10.37,2013-02-09 16:56:00,
2013-02-09 12:01:00,31.3,22.3,29.92,NW,315,11.5,11.5,69,0.03,RA,,0.03,WeatherDisplay:10.37,2013-02-09 17:01:00,
2013-02-09 12:06:00,31.3,22.3,29.92,NW,315,8.5,9.0,69,0.03,CLR,,0.03,WeatherDisplay:10.37,2013-02-09 17:06:00,
2013-02-09 12:11:00,31.3,22.3,29.92,NW,315,8.5,9.0,69,0.03,CLR,,0.03,WeatherDisplay:10.37,2013-02-09 17:11:00,
2013-02-09 12:16:00,31.3,22.3,29.93,NNW,338,10.4,10.4,69,0.03,,,0.03,WeatherDisplay:10.37,2013-02-09 17:16:00,
2013-02-09 12:21:00,31.3,22.3,29.93,WNW,292,17.3,17.3,69,0.03,,,0.03,WeatherDisplay:10.37,2013-02-09 17:21:00,
2013-02-09 12:26:00,32.0,21.2,29.93,NNW,338,20.7,20.7,64,0.03,,,0.03,WeatherDisplay:10.37,2013-02-09 17:26:00,
2013-02-09 12:31:00,32.2,21.7,29.93,NE,45,13.8,13.8,65,0.03,,,0.03,WeatherDisplay:10.37,2013-02-09 17:31:00,
2013-02-09 12:36:00,32.2,21.4,29.93,NNE,22,7.4,8.3,64,0.03,,,0.03,WeatherDisplay:10.37,2013-02-09 17:36:00,
2013-02-09 12:41:00,32.7,23.0,29.93,East,90,8.1,8.1,67,0.03,,,0.03,WeatherDisplay:10.37,2013-02-09 17:41:00,
2013-02-09 12:46:00,32.9,22.8,29.93,NW,315,10.4,10.4,66,0.03,,,0.03,WeatherDisplay:10.37,2013-02-09 17:46:00,
2013-02-09 12:51:00,32.7,21.5,29.93,NNW,338,10.6,10.6,63,0.03,,,0.03,WeatherDisplay:10.37,2013-02-09 17:51:00,
2013-02-09 12:56:00,33.1,22.6,29.94,NNW,338,11.5,11.5,65,0.03,,,0.03,WeatherDisplay:10.37,2013-02-09 17:56:00,
2013-02-09 13:01:00,33.4,22.6,29.94,WNW,292,8.1,8.1,64,0.00,,,0.03,WeatherDisplay:10.37,2013-02-09 18:01:00,
2013-02-09 13:06:00,33.6,22.0,29.94,NW,315,12.7,12.7,62,0.00,,,0.03,WeatherDisplay:10.37,2013-02-09 18:06:00,
2013-02-09 13:11:00,33.6,22.4,29.94,NW,315,12.7,12.7,63,0.00,,,0.03,WeatherDisplay:10.37,2013-02-09 18:11:00,
2013-02-09 13:16:00,34.2,23.2,29.95,NW,315,6.9,6.9,64,0.00,,,0.03,WeatherDisplay:10.37,2013-02-09 18:16:00,
2013-02-09 13:21:00,34.2,22.5,29.95,WSW,248,8.1,8.1,62,0.00,,,0.03,WeatherDisplay:10.37,2013-02-09 18:21:00,
2013-02-09 13:26:00,34.2,21.3,29.95,NNW,338,17.3,17.3,59,0.00,,,0.03,WeatherDisplay:10.37,2013-02-09 18:26:00,
2013-02-09 13:31:00,34.2,21.3,29.95,WNW,292,15.0,15.0,59,0.00,,,0.03,WeatherDisplay:10.37,2013-02-09 18:31:00,
2013-02-09 13:36:00,34.2,21.7,29.95,WNW,292,11.5,11.5,60,0.00,,,0.03,WeatherDisplay:10.37,2013-02-09 18:36:00,
2013-02-09 13:41:00,34.3,21.9,29.95,NNW,338,12.7,12.7,60,0.00,,,0.03,WeatherDisplay:10.37,2013-02-09 18:41:00,
2013-02-09 13:46:00,34.2,20.9,29.95,NW,315,11.5,11.5,58,0.00,,,0.03,WeatherDisplay:10.37,2013-02-09 18:46:00,
2013-02-09 13:51:00,34.3,21.5,29.95,NW,315,9.2,9.2,59,0.00,,,0.03,WeatherDisplay:10.37,2013-02-09 18:51:00,
2013-02-09 13:56:00,34.3,20.7,29.96,NW,315,6.9,6.9,57,0.00,,,0.03,WeatherDisplay:10.37,2013-02-09 18:56:00,
2013-02-09 14:01:00,34.7,21.4,29.96,NW,315,9.2,9.2,58,0.00,,,0.03,WeatherDisplay:10.37,2013-02-09 19:01:00,
2013-02-09 14:06:00,34.5,20.4,29.96,NNW,338,13.8,13.8,56,0.00,,,0.03,WeatherDisplay:10.37,2013-02-09 19:06:00,
2013-02-09 14:11:00,34.3,20.3,29.96,West,270,11.5,11.5,56,0.00,,,0.03,WeatherDisplay:10.37,2013-02-09 19:11:00,
2013-02-09 14:16:00,34.3,20.7,29.96,NNW,338,10.4,10.4,57,0.00,,,0.03,WeatherDisplay:10.37,2013-02-09 19:16:00,
2013-02-09 14:21:00,34.2,20.5,29.96,NW,315,15.0,15.0,57,0.00,,,0.03,WeatherDisplay:10.37,2013-02-09 19:21:00,
2013-02-09 14:26:00,34.2,20.1,29.96,NW,315,13.8,13.8,56,0.00,,,0.03,WeatherDisplay:10.37,2013-02-09 19:26:00,
2013-02-09 14:31:00,34.2,20.1,29.96,NNW,338,15.0,15.0,56,0.00,,,0.03,WeatherDisplay:10.37,2013-02-09 19:31:00,
2013-02-09 14:36:00,33.8,18.9,29.97,NNW,338,15.0,15.0,54,0.00,,,0.03,WeatherDisplay:10.37,2013-02-09 19:36:00,
2013-02-09 14:41:00,33.6,18.3,29.97,NW,315,15.0,15.0,53,0.00,,,0.03,WeatherDisplay:10.37,2013-02-09 19:41:00,
2013-02-09 14:46:00,33.6,18.7,29.97,NW,315,12.7,12.7,54,0.00,,,0.03,WeatherDisplay:10.37,2013-02-09 19:46:00,
2013-02-09 14:51:00,33.8,19.3,29.97,NW,315,11.5,11.5,55,0.00,,,0.03,WeatherDisplay:10.37,2013-02-09 19:51:00,
2013-02-09 14:56:00,33.8,19.3,29.97,WNW,292,11.5,11.5,55,0.00,,,0.03,WeatherDisplay:10.37,2013-02-09 19:56:00,
2013-02-09 15:01:00,33.6,18.7,29.97,NW,315,8.1,8.1,54,0.00,,,0.03,WeatherDisplay:10.37,2013-02-09 20:01:00,
2013-02-09 15:06:00,33.6,18.7,29.97,NW,315,10.4,10.4,54,0.00,,,0.03,WeatherDisplay:10.37,2013-02-09 20:06:00,
2013-02-09 15:11:00,33.4,17.7,29.97,NW,315,10.4,10.4,52,0.00,,,0.03,WeatherDisplay:10.37,2013-02-09 20:11:00,
2013-02-09 15:16:00,33.4,17.7,29.99,WNW,292,16.1,16.1,52,0.00,,,0.03,WeatherDisplay:10.37,2013-02-09 20:16:00,
2013-02-09 15:21:00,33.4,18.1,29.99,SE,135,5.8,7.8,53,0.00,,,0.03,WeatherDisplay:10.37,2013-02-09 20:21:00,
2013-02-09 15:26:00,33.4,17.7,29.99,ENE,68,10.4,10.4,52,0.00,,,0.03,WeatherDisplay:10.37,2013-02-09 20:26:00,
2013-02-09 15:31:00,33.3,16.6,29.99,South,180,17.3,17.3,50,0.00,,,0.03,WeatherDisplay:10.37,2013-02-09 20:31:00,
2013-02-09 15:36:00,33.3,18.0,29.99,NNW,338,5.8,7.2,53,0.00,,,0.03,WeatherDisplay:10.37,2013-02-09 20:36:00,
2013-02-09 15:41:00,33.4,16.8,29.99,NW,315,12.7,12.7,50,0.03,RA,,0.06,WeatherDisplay:10.37,2013-02-09 20:41:00,
2013-02-09 15:46:00,33.1,16.4,29.99,NW,315,15.0,15.0,50,0.03,RA,,0.06,WeatherDisplay:10.37,2013-02-09 20:46:00,
2013-02-09 15:51:00,33.1,16.0,29.99,NNW,338,8.1,8.3,49,0.03,CLR,,0.06,WeatherDisplay:10.37,2013-02-09 20:51:00,
2013-02-09 15:56:00,32.9,16.3,30.00,NW,315,6.9,6.9,50,0.03,CLR,,0.06,WeatherDisplay:10.37,2013-02-09 20:56:00,
2013-02-09 16:01:00,32.7,16.6,30.00,NW,315,4.6,6.1,51,0.03,CLR,,0.06,WeatherDisplay:10.37,2013-02-09 21:01:00,
2013-02-09 16:06:00,32.7,15.2,30.00,NW,315,11.5,11.5,48,0.03,CLR,,0.06,WeatherDisplay:10.37,2013-02-09 21:06:00,
2013-02-09 16:11:00,32.5,15.5,30.00,NW,315,11.5,11.5,49,0.03,CLR,,0.06,WeatherDisplay:10.37,2013-02-09 21:11:00,
2013-02-09 16:16:00,32.7,15.6,30.02,NW,315,10.4,10.4,49,0.06,RA,,0.08,WeatherDisplay:10.37,2013-02-09 21:16:00,
2013-02-09 16:21:00,32.7,15.2,30.02,NNE,22,11.5,11.5,48,0.06,RA,,0.08,WeatherDisplay:10.37,2013-02-09 21:21:00,
2013-02-09 16:26:00,32.5,15.5,30.02,NW,315,9.2,9.2,49,0.06,CLR,,0.08,WeatherDisplay:10.37,2013-02-09 21:26:00,
2013-02-09 16:31:00,32.4,15.8,30.02,NW,315,9.2,9.2,50,0.06,CLR,,0.08,WeatherDisplay:10.37,2013-02-09 21:31:00,
2013-02-09 16:36:00,32.2,15.6,30.03,NW,315,10.4,10.4,50,0.06,CLR,,0.08,WeatherDisplay:10.37,2013-02-09 21:36:00,
2013-02-09 16:41:00,32.2,15.6,30.03,NW,315,9.2,9.2,50,0.03,CLR,,0.08,WeatherDisplay:10.37,2013-02-09 21:41:00,
2013-02-09 16:46:00,31.6,14.6,30.03,NW,315,11.5,11.5,49,0.03,CLR,,0.08,WeatherDisplay:10.37,2013-02-09 21:46:00,
2013-02-09 16:51:00,31.3,15.2,30.03,NW,315,7.2,7.2,51,0.03,CLR,,0.08,WeatherDisplay:10.37,2013-02-09 21:51:00,
2013-02-09 16:56:00,31.3,15.2,30.03,NW,315,9.3,9.3,51,0.03,CLR,,0.08,WeatherDisplay:10.37,2013-02-09 21:56:00,
2013-02-09 17:01:00,30.9,14.4,30.03,NW,315,6.9,6.9,50,0.03,CLR,,0.08,WeatherDisplay:10.37,2013-02-09 22:01:00,
2013-02-09 17:06:00,30.6,14.6,30.03,NW,315,8.2,8.2,51,0.03,CLR,,0.08,WeatherDisplay:10.37,2013-02-09 22:06:00,
2013-02-09 17:11:00,30.4,14.4,30.03,NW,315,8.1,8.1,51,0.03,CLR,,0.08,WeatherDisplay:10.37,2013-02-09 22:11:00,
2013-02-09 17:16:00,30.2,14.2,30.05,NNW,338,8.1,8.1,51,0.00,CLR,,0.08,WeatherDisplay:10.37,2013-02-09 22:16:00,
2013-02-09 17:21:00,29.8,13.9,30.05,NW,315,12.9,12.9,51,0.00,CLR,,0.08,WeatherDisplay:10.37,2013-02-09 22:21:00,
2013-02-09 17:26:00,29.8,13.9,30.05,NW,315,13.8,13.8,51,0.00,CLR,,0.08,WeatherDisplay:10.37,2013-02-09 22:26:00,
2013-02-09 17:31:00,29.5,13.1,30.05,NW,315,12.7,12.7,50,0.00,CLR,,0.08,WeatherDisplay:10.37,2013-02-09 22:31:00,
2013-02-09 17:36:00,29.5,13.6,30.06,NNW,338,16.1,16.1,51,0.00,CLR,,0.08,WeatherDisplay:10.37,2013-02-09 22:36:00,
2013-02-09 17:41:00,29.1,13.2,30.06,NW,315,8.1,8.1,51,0.00,CLR,,0.08,WeatherDisplay:10.37,2013-02-09 22:41:00,
2013-02-09 17:46:00,29.1,12.8,30.06,NNW,338,10.4,10.4,50,0.00,CLR,,0.08,WeatherDisplay:10.37,2013-02-09 22:46:00,
2013-02-09 17:51:00,29.1,12.8,30.06,NW,315,9.2,9.2,50,0.00,CLR,,0.08,WeatherDisplay:10.37,2013-02-09 22:51:00,
2013-02-09 17:56:00,28.8,13.3,30.08,NW,315,6.9,6.9,52,0.00,CLR,,0.08,WeatherDisplay:10.37,2013-02-09 22:56:00,
2013-02-09 18:01:00,28.8,12.9,30.08,NW,315,6.9,6.9,51,0.00,CLR,,0.08,WeatherDisplay:10.37,2013-02-09 23:01:00,
2013-02-09 18:06:00,28.4,13.0,30.08,WNW,292,4.6,5.3,52,0.00,CLR,,0.08,WeatherDisplay:10.37,2013-02-09 23:06:00,
2013-02-09 18:11:00,28.0,12.7,30.08,WNW,292,4.6,5.3,52,0.00,CLR,,0.08,WeatherDisplay:10.37,2013-02-09 23:11:00,
2013-02-09 18:16:00,28.0,13.1,30.09,NNW,338,8.2,8.2,53,0.00,CLR,,0.08,WeatherDisplay:10.37,2013-02-09 23:16:00,
2013-02-09 18:17:00,27.9,12.9,30.09,NW,315,8.1,8.1,53,0.00,CLR,,0.08,WeatherDisplay:10.37,2013-02-09 23:17:00,
2013-02-09 18:21:00,27.9,12.9,30.09,NW,315,8.1,8.1,53,0.00,CLR,,0.08,WeatherDisplay:10.37,2013-02-09 23:21:00,
2013-02-09 18:26:00,27.9,12.9,30.09,NW,315,8.1,8.1,53,0.00,CLR,,0.08,WeatherDisplay:10.37,2013-02-09 23:26:00,
2013-02-09 19:26:00,26.2,12.2,30.11,NW,315,8.1,8.1,55,0.00,CLR,,0.08,WeatherDisplay:10.37,2013-02-10 00:26:00,
2013-02-09 19:31:00,26.1,12.1,30.11,NNW,338,8.2,8.2,55,0.00,CLR,,0.08,WeatherDisplay:10.37,2013-02-10 00:31:00,
2013-02-09 19:36:00,26.2,12.2,30.13,NW,315,5.8,5.8,55,0.00,CLR,,0.08,WeatherDisplay:10.37,2013-02-10 00:36:00,
2013-02-09 19:41:00,26.2,11.8,30.13,WNW,292,5.8,6.0,54,0.00,CLR,,0.08,WeatherDisplay:10.37,2013-02-10 00:41:00,
2013-02-09 19:46:00,25.9,11.9,30.13,NW,315,5.8,5.9,55,0.00,CLR,,0.08,WeatherDisplay:10.37,2013-02-10 00:46:00,
2013-02-09 19:51:00,25.9,11.5,30.13,NW,315,12.7,12.7,54,0.00,CLR,,0.08,WeatherDisplay:10.37,2013-02-10 00:51:00,
2013-02-09 19:56:00,25.9,11.9,30.14,NW,315,4.6,5.2,55,0.00,CLR,,0.08,WeatherDisplay:10.37,2013-02-10 00:56:00,
2013-02-09 20:02:00,25.5,11.6,30.14,NW,315,8.1,8.1,55,0.00,CLR,,0.08,WeatherDisplay:10.37,2013-02-10 01:02:00,
2013-02-09 20:07:00,25.5,11.6,30.14,NNW,338,4.6,5.1,55,0.00,CLR,,0.08,WeatherDisplay:10.37,2013-02-10 01:07:00,
2013-02-09 20:12:00,25.5,10.7,30.14,NW,315,6.9,6.9,53,0.00,CLR,,0.08,WeatherDisplay:10.37,2013-02-10 01:12:00,
2013-02-09 20:17:00,25.2,11.2,30.17,NNW,338,4.6,4.6,55,0.00,CLR,,0.08,WeatherDisplay:10.37,2013-02-10 01:17:00,
2013-02-09 20:22:00,25.2,11.6,30.17,WNW,292,3.5,3.5,56,0.00,CLR,,0.08,WeatherDisplay:10.37,2013-02-10 01:22:00,
2013-02-09 20:27:00,24.8,11.3,30.17,NW,315,5.8,5.8,56,0.00,CLR,,0.08,WeatherDisplay:10.37,2013-02-10 01:27:00,
2013-02-09 20:32:00,24.8,11.3,30.17,NNW,338,11.5,11.5,56,0.00,CLR,,0.08,WeatherDisplay:10.37,2013-02-10 01:32:00,
2013-02-09 20:37:00,24.8,10.9,30.17,NW,315,12.7,12.7,55,0.00,CLR,,0.08,WeatherDisplay:10.37,2013-02-10 01:37:00,
2013-02-09 20:42:00,24.6,10.7,30.17,NW,315,9.2,9.2,55,0.00,CLR,,0.08,WeatherDisplay:10.37,2013-02-10 01:42:00,
2013-02-09 20:47:00,24.8,10.9,30.17,NW,315,13.7,13.7,55,0.00,CLR,,0.08,WeatherDisplay:10.37,2013-02-10 01:47:00,
2013-02-09 20:52:00,24.8,10.9,30.17,NW,315,15.0,15.0,55,0.00,CLR,,0.08,WeatherDisplay:10.37,2013-02-10 01:52:00,
2013-02-09 20:57:00,24.4,11.0,30.19,NW,315,9.2,9.2,56,0.00,CLR,,0.08,WeatherDisplay:10.37,2013-02-10 01:57:00,
2013-02-09 21:02:00,24.3,10.8,30.19,NW,315,10.4,10.4,56,0.00,CLR,,0.08,WeatherDisplay:10.37,2013-02-10 02:02:00,
2013-02-09 21:07:00,24.4,11.0,30.19,NW,315,9.2,9.2,56,0.00,CLR,,0.08,WeatherDisplay:10.37,2013-02-10 02:07:00,
2013-02-09 21:12:00,24.1,10.6,30.19,NW,315,9.2,9.2,56,0.00,CLR,,0.08,WeatherDisplay:10.37,2013-02-10 02:12:00,
2013-02-09 21:17:00,24.1,10.6,30.19,NNW,338,11.5,11.5,56,0.00,CLR,,0.08,WeatherDisplay:10.37,2013-02-10 02:17:00,
2013-02-09 21:22:00,24.1,11.0,30.19,NW,315,9.2,9.2,57,0.00,CLR,,0.08,WeatherDisplay:10.37,2013-02-10 02:22:00,
2013-02-09 21:27:00,24.1,11.0,30.19,NW,315,6.9,6.9,57,0.00,CLR,,0.08,WeatherDisplay:10.37,2013-02-10 02:27:00,
2013-02-09 21:32:00,23.7,10.7,30.19,NNW,338,8.1,8.1,57,0.00,CLR,,0.08,WeatherDisplay:10.37,2013-02-10 02:32:00,
2013-02-09 21:37:00,23.5,10.5,30.22,NNW,338,7.0,7.0,57,0.00,CLR,,0.08,WeatherDisplay:10.37,2013-02-10 02:37:00,
2013-02-09 21:42:00,23.4,10.7,30.22,NNW,338,4.6,4.6,58,0.00,CLR,,0.08,WeatherDisplay:10.37,2013-02-10 02:42:00,
2013-02-09 21:47:00,23.4,10.7,30.22,NW,315,4.6,4.6,58,0.00,CLR,,0.08,WeatherDisplay:10.37,2013-02-10 02:47:00,
2013-02-09 21:52:00,23.2,10.6,30.22,West,270,9.2,9.2,58,0.00,CLR,,0.08,WeatherDisplay:10.37,2013-02-10 02:52:00,
2013-02-09 21:57:00,23.4,10.7,30.22,NW,315,4.6,4.6,58,0.00,CLR,,0.08,WeatherDisplay:10.37,2013-02-10 02:57:00,
2013-02-09 22:02:00,23.0,10.8,30.22,West,270,4.9,4.9,59,0.00,CLR,,0.08,WeatherDisplay:10.37,2013-02-10 03:02:00,
2013-02-09 22:07:00,23.0,10.8,30.22,WNW,292,8.1,8.1,59,0.00,CLR,,0.08,WeatherDisplay:10.37,2013-02-10 03:07:00,
2013-02-09 22:12:00,22.6,10.4,30.22,NW,315,9.2,9.2,59,0.00,CLR,,0.08,WeatherDisplay:10.37,2013-02-10 03:12:00,
2013-02-09 22:17:00,23.0,10.8,30.22,NW,315,8.1,8.1,59,0.00,CLR,,0.08,WeatherDisplay:10.37,2013-02-10 03:17:00,
2013-02-09 22:22:00,22.6,10.4,30.22,NW,315,8.1,8.1,59,0.00,CLR,,0.08,WeatherDisplay:10.37,2013-02-10 03:22:00,
2013-02-09 22:27:00,22.6,10.4,30.22,NW,315,5.8,5.8,59,0.00,CLR,,0.08,WeatherDisplay:10.37,2013-02-10 03:27:00,
2013-02-09 22:32:00,22.5,10.3,30.22,NW,315,4.9,4.9,59,0.00,CLR,,0.08,WeatherDisplay:10.37,2013-02-10 03:32:00,
2013-02-09 22:37:00,22.3,10.5,30.23,NNW,338,4.6,4.6,60,0.00,CLR,,0.08,WeatherDisplay:10.37,2013-02-10 03:37:00,
2013-02-09 22:42:00,22.3,10.5,30.23,SE,135,3.5,3.5,60,0.00,CLR,,0.08,WeatherDisplay:10.37,2013-02-10 03:42:00,
2013-02-09 22:47:00,22.1,10.3,30.23,North,0,3.5,3.5,60,0.00,CLR,,0.08,WeatherDisplay:10.37,2013-02-10 03:47:00,
2013-02-09 22:53:00,21.9,10.1,30.23,NNW,338,4.6,4.6,60,0.00,CLR,,0.08,WeatherDisplay:10.37,2013-02-10 03:53:00,
2013-02-09 22:58:00,21.9,10.5,30.24,NW,315,4.6,4.6,61,0.00,CLR,,0.08,WeatherDisplay:10.37,2013-02-10 03:58:00,
2013-02-09 23:03:00,21.7,10.3,30.24,NNW,338,3.8,3.8,61,0.00,CLR,,0.08,WeatherDisplay:10.37,2013-02-10 04:03:00,
2013-02-09 23:08:00,21.6,10.2,30.24,NW,315,6.9,6.9,61,0.00,CLR,,0.08,WeatherDisplay:10.37,2013-02-10 04:08:00,
2013-02-09 23:13:00,21.6,10.2,30.24,WNW,292,4.6,4.6,61,0.00,CLR,,0.08,WeatherDisplay:10.37,2013-02-10 04:13:00,
2013-02-09 23:18:00,21.6,10.2,30.24,NW,315,8.1,8.1,61,0.00,CLR,,0.08,WeatherDisplay:10.37,2013-02-10 04:18:00,
2013-02-09 23:23:00,21.6,10.2,30.24,NW,315,10.4,10.4,61,0.00,CLR,,0.08,WeatherDisplay:10.37,2013-02-10 04:23:00,
2013-02-09 23:28:00,21.4,10.0,30.24,NNE,22,9.2,9.2,61,0.00,CLR,,0.08,WeatherDisplay:10.37,2013-02-10 04:28:00,
2013-02-09 23:33:00,21.4,10.0,30.24,NW,315,4.6,4.6,61,0.00,CLR,,0.08,WeatherDisplay:10.37,2013-02-10 04:33:00,
2013-02-09 23:38:00,21.2,9.8,30.26,WNW,292,5.8,5.8,61,0.00,CLR,,0.08,WeatherDisplay:10.37,2013-02-10 04:38:00,
2013-02-09 23:43:00,21.2,9.8,30.26,North,0,5.8,5.8,61,0.00,CLR,,0.08,WeatherDisplay:10.37,2013-02-10 04:43:00,
2013-02-09 23:48:00,21.0,9.7,30.26,NW,315,3.5,3.5,61,0.00,CLR,,0.08,WeatherDisplay:10.37,2013-02-10 04:48:00,
2013-02-09 23:53:00,20.8,9.9,30.26,NNW,338,6.9,6.9,62,0.00,CLR,,0.08,WeatherDisplay:10.37,2013-02-10 04:53:00,
2013-02-09 23:58:00,20.8,9.9,30.26,NW,315,3.5,3.5,62,0.00,CLR,,0.08,WeatherDisplay:10.37,2013-02-10 04:58:00,